To NAV CANADA Home Page Login to a new session Search on AWWS site Disclaimer Vers la page française équivalente Tips FAQ What's new on the site To the Forecasts and Observations / NOTAM section To "File a Flight Plan" website Publications and other links Update of the User's profile FIC Telephone Numbers My Weather Data Folder Route Weather Data Regional Weather Data Local Weather Data To the Forecasts and Observations / NOTAM section
Request Generated 12/04/2022 at 05:41:39 UTC . Weather information available at that time is displayed.


Go to a specific product

Save this request - Inactive

METAR/TAF

CALGARY/YYC CALGARY INTL/AB    

METAR CYYC 040500Z 23007KT 15SM SKC M08/M16 A2994 RMK SLP205=
METAR CYYC 040400Z 19007KT 15SM SKC M13/M18 A2996 RMK CONTRAILS SLP219=
METAR CYYC 040300Z 17004KT 15SM SKC M11/M18 A3000 RMK SLP232=

TAF CYYC 040540Z 0406/0506 23006KT P6SM SKC
BECMG 0406/0408 28012KT
BECMG 0410/0412 34012KT
FM041900 35012G22KT P6SM SCT030 BKN080 TEMPO 0419/0422 BKN030
BKN080
FM042200 35015G25KT P6SM -SN SCT020 BKN050 TEMPO 0422/0506
2 1/2SM -SN BKN020 OVC050
RMK NXT FCST BY 040900Z

CALGARY/SPRINGBANK/AB    (show WxCam)

METAR CYBW 040500Z AUTO 29005KT 9SM CLR M11/M17 A2995 RMK SLP215=
METAR CYBW 040400Z AUTO 22003KT 9SM CLR M14/M19 A2996 RMK SLP235=
METAR CYBW 040300Z AUTO 33002KT 9SM CLR M15/M18 A2998 RMK SLP248=

*** REMARK        : Forecast period has ended; this was the last TAF issued
*** REMARQUE : La période de prévision est échue; ceci était le dernier TAF qui a été émis
TAF CYBW 032348Z 0400/0405 28008KT P6SM SKC TEMPO 0403/0405
28012G22KT
RMK FCST BASED ON AUTO OBS. NXT FCST BY 041300Z=


GRAPHICAL FA CLOUDS & WEATHER FORECASTS
To the Product Selector
Graphical FA gfacn32      

GRAPHICAL FA ICING, TURBULENCE & FREEZING LEVEL FORECASTS
To the Product Selector
Graphical FA gfacn32      

Your time UTC time
Weather data provided by Environment Canada and NAV CANADA